createdAt,value
2022-07-25T00:01:59.495Z,8.10
2022-07-25T00:06:02.368Z,7.97
2022-07-25T00:10:05.036Z,8.85
2022-07-25T00:14:07.617Z,8.23
2022-07-25T00:18:09.730Z,8.32
2022-07-25T00:22:11.485Z,9.13
2022-07-25T00:26:14.468Z,8.55
2022-07-25T00:30:16.273Z,8.57
2022-07-25T00:34:18.033Z,8.35
2022-07-25T00:38:19.777Z,8.10
2022-07-25T00:42:24.255Z,8.48
2022-07-25T00:46:26.053Z,8.25
2022-07-25T00:50:29.363Z,9.05
2022-07-25T00:54:31.319Z,9.30
2022-07-25T00:58:33.783Z,8.88
2022-07-25T01:02:35.594Z,8.60
2022-07-25T01:06:38.468Z,9.02
2022-07-25T01:10:40.587Z,8.10
2022-07-25T01:14:42.348Z,9.30
2022-07-25T01:18:44.500Z,8.75
2022-07-25T01:22:46.636Z,9.25
2022-07-25T01:26:48.413Z,9.57
2022-07-25T01:30:50.179Z,8.60
2022-07-25T01:34:51.946Z,8.70
2022-07-25T01:38:54.307Z,9.05
2022-07-25T01:42:56.136Z,9.20
2022-07-25T01:46:57.955Z,9.65
2022-07-25T01:51:00.330Z,9.00
2022-07-25T01:55:02.227Z,8.35
2022-07-25T01:59:04.109Z,8.75
2022-07-25T02:03:24.841Z,8.63
2022-07-25T02:07:26.613Z,9.45
2022-07-25T02:11:28.463Z,9.68
2022-07-25T02:15:30.275Z,9.20
2022-07-25T02:19:32.223Z,9.57
2022-07-25T02:23:34.084Z,9.00
2022-07-25T02:27:35.884Z,9.35
2022-07-25T02:31:37.799Z,9.30
2022-07-25T02:36:17.479Z,9.95
2022-07-25T02:40:19.284Z,9.60
2022-07-25T02:44:21.042Z,9.52
2022-07-25T02:48:23.629Z,9.55
2022-07-25T02:52:25.431Z,9.82
2022-07-25T02:56:30.252Z,9.40
2022-07-25T03:00:33.984Z,10.50
2022-07-25T03:04:35.958Z,10.00
2022-07-25T03:08:38.204Z,10.50
2022-07-25T03:12:41.140Z,10.18
2022-07-25T03:16:42.949Z,9.98
2022-07-25T03:20:44.740Z,10.40
2022-07-25T03:24:46.561Z,9.82
2022-07-25T03:28:48.512Z,10.27
2022-07-25T03:32:50.301Z,10.27
2022-07-25T03:36:52.086Z,10.32
2022-07-25T03:40:53.953Z,10.52
2022-07-25T03:44:55.779Z,9.70
2022-07-25T03:48:57.702Z,8.77
2022-07-25T03:52:59.577Z,9.95
2022-07-25T03:57:01.586Z,10.20
2022-07-25T04:01:03.329Z,9.63
2022-07-25T04:05:07.381Z,10.05
2022-07-25T04:09:10.373Z,10.00
2022-07-25T04:13:12.852Z,9.75
2022-07-25T04:17:15.000Z,9.82
2022-07-25T04:21:20.249Z,10.40
2022-07-25T04:25:22.193Z,9.45
2022-07-25T04:29:24.047Z,10.45
2022-07-25T04:33:26.132Z,10.20
2022-07-25T04:37:27.915Z,10.63
2022-07-25T04:41:30.560Z,10.50
2022-07-25T04:45:33.307Z,10.70
2022-07-25T04:49:35.083Z,11.20
2022-07-25T04:53:36.951Z,11.05
2022-07-25T04:57:39.079Z,11.38
2022-07-25T05:02:18.455Z,10.68
2022-07-25T05:06:20.250Z,11.20
2022-07-25T05:10:22.216Z,11.75
2022-07-25T05:14:23.998Z,11.57
2022-07-25T05:18:28.368Z,11.10
2022-07-25T05:22:30.366Z,11.10
2022-07-25T05:26:32.172Z,11.52
2022-07-25T05:30:39.302Z,11.63
2022-07-25T05:34:41.783Z,11.90
2022-07-25T05:38:43.546Z,12.90
2022-07-25T05:42:45.965Z,11.65
2022-07-25T05:46:47.846Z,11.80
2022-07-25T05:50:49.694Z,10.98
2022-07-25T05:54:51.704Z,11.18
2022-07-25T05:58:58.226Z,11.85
2022-07-25T06:03:03.087Z,11.93
2022-07-25T06:07:05.131Z,12.85
2022-07-25T06:11:08.303Z,13.35
2022-07-25T06:15:22.097Z,13.43
2022-07-25T06:19:24.936Z,13.18
2022-07-25T06:23:28.289Z,13.23
2022-07-25T06:27:37.953Z,12.70
2022-07-25T06:31:40.381Z,14.52
2022-07-25T06:35:43.366Z,26.42
2022-07-25T06:39:45.987Z,14.88
2022-07-25T06:43:48.271Z,12.57
2022-07-25T06:52:25.705Z,13.55
2022-07-25T06:56:31.439Z,13.38
2022-07-25T07:00:33.291Z,14.50
2022-07-25T07:04:35.172Z,16.17
2022-07-25T07:08:37.779Z,16.25
2022-07-25T07:12:39.779Z,14.02
2022-07-25T07:16:42.437Z,13.85
2022-07-25T07:20:44.846Z,12.38
2022-07-25T07:24:48.231Z,11.93
2022-07-25T07:28:50.171Z,13.38
2022-07-25T07:32:52.111Z,12.95
2022-07-25T07:37:11.803Z,12.95
2022-07-25T07:41:14.060Z,13.77
2022-07-25T07:45:21.416Z,12.10
2022-07-25T07:49:23.221Z,11.90
2022-07-25T07:53:47.753Z,11.23
2022-07-25T07:57:50.616Z,10.95
2022-07-25T08:01:52.625Z,11.02
2022-07-25T08:05:54.511Z,10.80
2022-07-25T08:10:07.902Z,10.43
2022-07-25T08:14:10.282Z,11.52
2022-07-25T08:18:17.501Z,10.45
2022-07-25T08:22:20.210Z,10.63
2022-07-25T08:26:35.242Z,9.93
2022-07-25T08:30:38.789Z,11.38
2022-07-25T08:34:41.128Z,10.27
2022-07-25T08:38:43.961Z,9.32
2022-07-25T08:42:47.564Z,10.07
2022-07-25T08:47:00.474Z,10.23
2022-07-25T08:51:03.327Z,10.95
2022-07-25T08:55:09.050Z,9.98
2022-07-25T08:59:11.287Z,9.90
2022-07-25T09:03:13.545Z,9.82
2022-07-25T09:07:15.603Z,10.50
2022-07-25T09:11:35.195Z,10.48
2022-07-25T09:15:55.915Z,10.52
2022-07-25T09:19:58.255Z,10.57
2022-07-25T09:24:16.816Z,10.73
2022-07-25T09:28:19.829Z,11.50
2022-07-25T09:32:22.911Z,10.32
2022-07-25T09:36:25.048Z,10.50
2022-07-25T09:40:34.829Z,10.20
2022-07-25T09:44:38.847Z,9.85
2022-07-25T09:48:56.652Z,9.82
2022-07-25T09:53:03.904Z,10.20
2022-07-25T09:57:12.992Z,9.88
2022-07-25T10:01:22.849Z,9.55
2022-07-25T10:05:56.782Z,9.07
2022-07-25T10:10:00.410Z,10.30
2022-07-25T10:14:12.005Z,9.35
2022-07-25T10:18:16.458Z,8.98
2022-07-25T10:22:29.418Z,6.32
2022-07-25T10:27:03.730Z,7.20
2022-07-25T10:31:19.673Z,4.60
2022-07-25T10:35:25.954Z,4.10
2022-07-25T10:39:45.055Z,3.75
2022-07-25T10:43:48.922Z,3.85
2022-07-25T10:47:55.975Z,3.88
2022-07-25T10:52:05.656Z,4.22
2022-07-25T10:56:15.439Z,3.70
2022-07-25T11:00:23.825Z,3.88
2022-07-25T11:04:26.165Z,3.70
2022-07-25T11:08:57.825Z,3.97
2022-07-25T11:13:08.158Z,3.92
2022-07-25T11:17:12.781Z,3.47
2022-07-25T11:21:14.770Z,3.95
2022-07-25T11:25:26.337Z,4.40
2022-07-25T11:29:28.450Z,4.30
2022-07-25T11:33:30.659Z,4.63
2022-07-25T11:37:38.133Z,4.53
2022-07-25T11:41:42.872Z,4.95
2022-07-25T11:45:45.147Z,5.00
2022-07-25T11:49:49.904Z,5.00
2022-07-25T11:54:03.113Z,4.28
2022-07-25T11:58:08.709Z,5.53
2022-07-25T12:02:33.706Z,5.38
2022-07-25T12:06:35.953Z,5.55
2022-07-25T12:10:47.513Z,5.22
2022-07-25T12:14:52.817Z,5.60
2022-07-25T12:19:04.815Z,5.65
2022-07-25T12:23:11.524Z,5.75
2022-07-25T12:27:23.268Z,6.15
2022-07-25T12:31:28.714Z,6.05
2022-07-25T12:35:42.123Z,5.82
2022-07-25T12:39:44.112Z,5.85
2022-07-25T12:43:46.182Z,5.50
2022-07-25T12:47:48.578Z,5.53
2022-07-25T12:51:56.118Z,5.20
2022-07-25T12:56:02.433Z,5.50
2022-07-25T13:00:11.395Z,5.50
2022-07-25T13:04:30.905Z,5.82
2022-07-25T13:08:33.478Z,5.63
2022-07-25T13:12:45.075Z,5.68
2022-07-25T13:16:48.529Z,5.95
2022-07-25T13:20:51.033Z,5.85
2022-07-25T13:24:53.825Z,5.35
2022-07-25T13:29:05.215Z,5.95
2022-07-25T13:33:10.202Z,5.53
2022-07-25T13:37:12.097Z,5.63
2022-07-25T13:41:21.573Z,5.60
2022-07-25T13:45:23.529Z,5.13
2022-07-25T13:49:25.960Z,5.45
2022-07-25T13:53:30.486Z,5.43
2022-07-25T13:57:33.610Z,5.30
2022-07-25T14:01:47.587Z,5.70
2022-07-25T14:05:49.914Z,5.05
2022-07-25T14:09:54.458Z,5.53
2022-07-25T14:13:56.560Z,4.97
2022-07-25T14:17:58.786Z,5.00
2022-07-25T14:22:01.123Z,4.93
2022-07-25T14:26:03.130Z,5.18
2022-07-25T14:30:08.675Z,4.57
2022-07-25T14:34:10.927Z,4.45
2022-07-25T14:38:13.168Z,4.40
2022-07-25T14:42:17.512Z,4.68
2022-07-25T14:46:20.168Z,4.70
2022-07-25T14:50:25.492Z,4.60
2022-07-25T14:54:28.594Z,4.43
2022-07-25T14:58:30.946Z,5.05
2022-07-25T15:02:45.785Z,5.20
2022-07-25T15:06:48.910Z,5.47
2022-07-25T15:10:51.078Z,5.20
2022-07-25T15:14:52.976Z,6.05
2022-07-25T15:19:17.306Z,5.30
2022-07-25T15:23:21.079Z,5.68
2022-07-25T15:27:23.245Z,5.68
2022-07-25T15:31:26.585Z,5.30
2022-07-25T15:35:29.014Z,6.03
2022-07-25T15:39:47.414Z,5.50
2022-07-25T15:44:03.927Z,5.68
2022-07-25T15:48:10.724Z,5.68
2022-07-25T15:52:33.055Z,5.63
2022-07-25T15:56:35.071Z,6.15
2022-07-25T16:00:45.218Z,5.78
2022-07-25T16:04:48.491Z,6.63
2022-07-25T16:08:54.632Z,6.65
2022-07-25T16:12:59.050Z,5.82
2022-07-25T16:17:01.061Z,5.63
2022-07-25T16:21:07.949Z,5.85
2022-07-25T16:25:09.886Z,6.28
2022-07-25T16:29:17.583Z,5.65
2022-07-25T16:33:21.558Z,5.85
2022-07-25T16:37:23.864Z,6.15
2022-07-25T16:41:25.877Z,6.82
2022-07-25T16:45:29.172Z,6.43
2022-07-25T16:49:33.381Z,6.65
2022-07-25T16:53:41.747Z,5.95
2022-07-25T16:57:54.036Z,7.18
2022-07-25T17:01:56.646Z,6.30
2022-07-25T17:05:58.614Z,7.03
2022-07-25T17:10:00.445Z,6.45
2022-07-25T17:14:05.181Z,6.45
2022-07-25T17:18:10.010Z,6.60
2022-07-25T17:22:21.607Z,7.15
2022-07-25T17:26:28.922Z,6.88
2022-07-25T17:30:30.805Z,6.72
2022-07-25T17:34:36.020Z,6.70
2022-07-25T17:38:38.544Z,7.05
2022-07-25T17:42:44.736Z,7.32
2022-07-25T17:46:47.355Z,7.28
2022-07-25T17:50:49.600Z,7.53
2022-07-25T17:54:53.611Z,6.88
2022-07-25T17:58:55.665Z,7.18
2022-07-25T18:02:57.720Z,7.35
2022-07-25T18:07:02.373Z,6.60
2022-07-25T18:11:04.231Z,6.72
2022-07-25T18:15:06.809Z,7.13
2022-07-25T18:19:08.805Z,6.75
2022-07-25T18:23:10.782Z,6.82
2022-07-25T18:27:21.177Z,6.60
2022-07-25T18:31:23.153Z,7.03
2022-07-25T18:35:25.085Z,7.03
2022-07-25T18:39:27.262Z,6.97
2022-07-25T18:43:29.298Z,6.90
2022-07-25T18:47:37.147Z,6.43
2022-07-25T18:51:39.738Z,6.30
2022-07-25T18:55:48.531Z,7.18
2022-07-25T18:59:50.499Z,7.20
2022-07-25T19:03:52.518Z,7.05
2022-07-25T19:07:56.660Z,6.80
2022-07-25T19:11:58.626Z,6.75
2022-07-25T19:16:05.945Z,7.05
2022-07-25T19:20:09.805Z,7.15
2022-07-25T19:24:12.782Z,6.55
2022-07-25T19:28:16.114Z,7.35
2022-07-25T19:32:18.402Z,6.53
2022-07-25T19:36:25.920Z,6.65
2022-07-25T19:40:27.872Z,6.03
2022-07-25T19:44:29.870Z,6.35
2022-07-25T19:48:32.072Z,5.70
2022-07-25T19:52:34.058Z,5.38
2022-07-25T19:56:41.585Z,6.18
2022-07-25T20:00:43.643Z,5.85
2022-07-25T20:04:45.658Z,5.50
2022-07-25T20:08:51.068Z,5.63
2022-07-25T20:13:01.803Z,5.20
2022-07-25T20:17:04.103Z,5.60
2022-07-25T20:21:08.756Z,4.78
2022-07-25T20:25:15.532Z,4.65
2022-07-25T20:29:18.155Z,4.63
2022-07-25T20:33:20.154Z,4.40
2022-07-25T20:37:22.311Z,4.40
2022-07-25T20:41:27.545Z,4.38
2022-07-25T20:45:41.134Z,5.10
2022-07-25T20:49:44.068Z,4.20
2022-07-25T20:53:53.250Z,4.18
2022-07-25T20:57:55.807Z,4.30
2022-07-25T21:01:58.100Z,3.88
2022-07-25T21:06:03.633Z,3.97
2022-07-25T21:10:06.351Z,3.70
2022-07-25T21:14:08.793Z,3.60
2022-07-25T21:18:13.569Z,3.80
2022-07-25T21:22:25.630Z,3.95
2022-07-25T21:26:27.531Z,3.50
2022-07-25T21:30:29.432Z,3.13
2022-07-25T21:34:31.317Z,3.03
2022-07-25T21:38:35.017Z,3.10
2022-07-25T21:42:37.966Z,2.88
2022-07-25T21:46:39.741Z,2.67
2022-07-25T21:50:44.187Z,2.28
2022-07-25T21:54:46.664Z,3.08
2022-07-25T21:58:49.033Z,2.90
2022-07-25T22:02:58.666Z,2.78
2022-07-25T22:07:00.657Z,2.58
2022-07-25T22:11:15.579Z,2.40
2022-07-25T22:15:24.501Z,2.42
2022-07-25T22:19:46.507Z,2.67
2022-07-25T22:23:48.457Z,2.55
2022-07-25T22:27:58.015Z,2.25
2022-07-25T22:32:00.543Z,2.30
2022-07-25T22:36:02.601Z,2.83
2022-07-25T22:40:04.954Z,2.28
2022-07-25T22:44:06.933Z,2.20
2022-07-25T22:48:17.883Z,2.15
2022-07-25T22:52:19.962Z,2.33
2022-07-25T22:56:23.260Z,2.17
2022-07-25T23:00:25.285Z,2.10
2022-07-25T23:04:27.367Z,2.38
2022-07-25T23:08:29.863Z,2.40
2022-07-25T23:12:32.157Z,2.30
2022-07-25T23:16:34.140Z,2.40
2022-07-25T23:20:36.072Z,2.28
2022-07-25T23:24:38.266Z,2.28
2022-07-25T23:28:40.383Z,2.58
2022-07-25T23:32:42.367Z,2.15
2022-07-25T23:36:47.226Z,2.38
2022-07-25T23:40:50.028Z,1.92
2022-07-25T23:44:51.914Z,2.30
2022-07-25T23:49:00.107Z,1.90
2022-07-25T23:53:02.197Z,2.15
2022-07-25T23:57:04.644Z,2.17
